sensor_id;sensor_type;location;lat;lon;timestamp;P1;durP1;ratioP1;P2;durP2;ratioP2
76053;SDS011;64752;48.870;9.082;2023-10-19T00:00:31;39.20;;;28.30;;
76053;SDS011;64752;48.870;9.082;2023-10-19T00:03:01;35.20;;;26.77;;
76053;SDS011;64752;48.870;9.082;2023-10-19T00:05:31;34.42;;;24.30;;
76053;SDS011;64752;48.870;9.082;2023-10-19T00:08:00;34.10;;;23.30;;
76053;SDS011;64752;48.870;9.082;2023-10-19T00:10:31;26.67;;;21.23;;
76053;SDS011;64752;48.870;9.082;2023-10-19T00:13:00;26.60;;;21.08;;
76053;SDS011;64752;48.870;9.082;2023-10-19T00:15:29;27.02;;;20.17;;
76053;SDS011;64752;48.870;9.082;2023-10-19T00:17:58;25.70;;;19.20;;
76053;SDS011;64752;48.870;9.082;2023-10-19T00:20:31;24.23;;;19.02;;
76053;SDS011;64752;48.870;9.082;2023-10-19T00:22:59;24.48;;;19.20;;
76053;SDS011;64752;48.870;9.082;2023-10-19T00:25:27;28.85;;;19.70;;
76053;SDS011;64752;48.870;9.082;2023-10-19T00:27:54;23.60;;;17.85;;
76053;SDS011;64752;48.870;9.082;2023-10-19T00:30:19;23.27;;;18.67;;
76053;SDS011;64752;48.870;9.082;2023-10-19T00:32:48;23.80;;;19.40;;
76053;SDS011;64752;48.870;9.082;2023-10-19T00:35:15;24.58;;;19.25;;
76053;SDS011;64752;48.870;9.082;2023-10-19T00:37:59;26.10;;;20.20;;
76053;SDS011;64752;48.870;9.082;2023-10-19T00:40:51;22.48;;;18.63;;
76053;SDS011;64752;48.870;9.082;2023-10-19T00:43:37;22.60;;;17.45;;
76053;SDS011;64752;48.870;9.082;2023-10-19T00:46:10;22.10;;;17.35;;
76053;SDS011;64752;48.870;9.082;2023-10-19T00:48:49;21.77;;;15.90;;
76053;SDS011;64752;48.870;9.082;2023-10-19T00:51:17;21.52;;;15.77;;
76053;SDS011;64752;48.870;9.082;2023-10-19T00:53:58;19.45;;;14.70;;
76053;SDS011;64752;48.870;9.082;2023-10-19T00:56:30;20.38;;;14.70;;
76053;SDS011;64752;48.870;9.082;2023-10-19T00:58:59;18.13;;;13.02;;
76053;SDS011;64752;48.870;9.082;2023-10-19T01:01:32;18.90;;;15.18;;
76053;SDS011;64752;48.870;9.082;2023-10-19T01:04:01;20.20;;;16.02;;
76053;SDS011;64752;48.870;9.082;2023-10-19T01:06:29;23.30;;;16.15;;
76053;SDS011;64752;48.870;9.082;2023-10-19T01:08:57;21.75;;;15.55;;
76053;SDS011;64752;48.870;9.082;2023-10-19T01:11:22;19.48;;;15.63;;
76053;SDS011;64752;48.870;9.082;2023-10-19T01:13:53;16.08;;;12.82;;
76053;SDS011;64752;48.870;9.082;2023-10-19T01:16:19;19.70;;;13.30;;
76053;SDS011;64752;48.870;9.082;2023-10-19T01:18:50;17.35;;;12.48;;
76053;SDS011;64752;48.870;9.082;2023-10-19T01:21:20;17.65;;;11.15;;
76053;SDS011;64752;48.870;9.082;2023-10-19T01:23:46;17.23;;;11.90;;
76053;SDS011;64752;48.870;9.082;2023-10-19T01:26:13;13.93;;;10.70;;
76053;SDS011;64752;48.870;9.082;2023-10-19T01:28:43;12.63;;;10.35;;
76053;SDS011;64752;48.870;9.082;2023-10-19T01:31:13;17.58;;;10.82;;
76053;SDS011;64752;48.870;9.082;2023-10-19T01:33:41;16.60;;;10.60;;
76053;SDS011;64752;48.870;9.082;2023-10-19T01:36:09;13.38;;;10.77;;
76053;SDS011;64752;48.870;9.082;2023-10-19T01:38:39;14.23;;;9.90;;
76053;SDS011;64752;48.870;9.082;2023-10-19T01:41:06;15.80;;;8.15;;
76053;SDS011;64752;48.870;9.082;2023-10-19T01:43:41;11.52;;;8.15;;
76053;SDS011;64752;48.870;9.082;2023-10-19T01:46:07;12.30;;;9.20;;
76053;SDS011;64752;48.870;9.082;2023-10-19T01:48:41;17.17;;;11.57;;
76053;SDS011;64752;48.870;9.082;2023-10-19T01:51:08;17.85;;;13.38;;
76053;SDS011;64752;48.870;9.082;2023-10-19T01:53:43;18.75;;;12.98;;
76053;SDS011;64752;48.870;9.082;2023-10-19T01:56:12;17.30;;;12.57;;
76053;SDS011;64752;48.870;9.082;2023-10-19T01:58:39;16.38;;;12.77;;
76053;SDS011;64752;48.870;9.082;2023-10-19T02:01:06;20.63;;;14.05;;
76053;SDS011;64752;48.870;9.082;2023-10-19T02:03:39;16.60;;;12.85;;
76053;SDS011;64752;48.870;9.082;2023-10-19T02:06:11;16.35;;;10.60;;
76053;SDS011;64752;48.870;9.082;2023-10-19T02:08:45;13.77;;;10.93;;
76053;SDS011;64752;48.870;9.082;2023-10-19T02:11:21;12.88;;;8.40;;
76053;SDS011;64752;48.870;9.082;2023-10-19T02:13:49;14.35;;;7.07;;
76053;SDS011;64752;48.870;9.082;2023-10-19T02:16:16;12.55;;;6.68;;
76053;SDS011;64752;48.870;9.082;2023-10-19T02:18:42;8.60;;;5.63;;
76053;SDS011;64752;48.870;9.082;2023-10-19T02:23:37;10.32;;;6.13;;
76053;SDS011;64752;48.870;9.082;2023-10-19T02:26:03;10.20;;;5.78;;
76053;SDS011;64752;48.870;9.082;2023-10-19T02:28:30;9.38;;;5.65;;
76053;SDS011;64752;48.870;9.082;2023-10-19T02:31:02;8.35;;;5.50;;
76053;SDS011;64752;48.870;9.082;2023-10-19T02:33:41;12.00;;;5.47;;
76053;SDS011;64752;48.870;9.082;2023-10-19T02:36:29;11.52;;;6.50;;
76053;SDS011;64752;48.870;9.082;2023-10-19T02:38:59;10.73;;;8.10;;
76053;SDS011;64752;48.870;9.082;2023-10-19T02:41:36;11.05;;;7.68;;
76053;SDS011;64752;48.870;9.082;2023-10-19T02:44:02;11.57;;;7.10;;
76053;SDS011;64752;48.870;9.082;2023-10-19T02:46:43;11.15;;;8.50;;
76053;SDS011;64752;48.870;9.082;2023-10-19T02:49:14;11.55;;;9.18;;
76053;SDS011;64752;48.870;9.082;2023-10-19T02:51:44;12.93;;;8.57;;
76053;SDS011;64752;48.870;9.082;2023-10-19T02:54:10;13.48;;;8.63;;
76053;SDS011;64752;48.870;9.082;2023-10-19T02:56:43;13.95;;;11.30;;
76053;SDS011;64752;48.870;9.082;2023-10-19T02:59:09;14.85;;;8.93;;
76053;SDS011;64752;48.870;9.082;2023-10-19T03:01:34;14.05;;;8.73;;
76053;SDS011;64752;48.870;9.082;2023-10-19T03:04:00;12.43;;;7.90;;
76053;SDS011;64752;48.870;9.082;2023-10-19T03:06:27;12.95;;;7.40;;
76053;SDS011;64752;48.870;9.082;2023-10-19T03:09:03;9.75;;;6.30;;
76053;SDS011;64752;48.870;9.082;2023-10-19T03:11:38;10.80;;;6.20;;
76053;SDS011;64752;48.870;9.082;2023-10-19T03:14:05;11.32;;;6.93;;
76053;SDS011;64752;48.870;9.082;2023-10-19T03:16:31;10.63;;;6.97;;
76053;SDS011;64752;48.870;9.082;2023-10-19T03:18:57;11.52;;;6.93;;
76053;SDS011;64752;48.870;9.082;2023-10-19T03:21:22;11.23;;;6.80;;
76053;SDS011;64752;48.870;9.082;2023-10-19T03:23:57;10.48;;;6.97;;
76053;SDS011;64752;48.870;9.082;2023-10-19T03:26:26;9.25;;;6.50;;
76053;SDS011;64752;48.870;9.082;2023-10-19T03:29:11;11.23;;;6.65;;
76053;SDS011;64752;48.870;9.082;2023-10-19T03:31:40;8.73;;;6.50;;
76053;SDS011;64752;48.870;9.082;2023-10-19T03:34:12;10.73;;;7.00;;
76053;SDS011;64752;48.870;9.082;2023-10-19T03:36:38;15.27;;;7.67;;
76053;SDS011;64752;48.870;9.082;2023-10-19T03:39:05;10.23;;;6.65;;
76053;SDS011;64752;48.870;9.082;2023-10-19T03:41:40;12.05;;;6.93;;
76053;SDS011;64752;48.870;9.082;2023-10-19T03:44:09;10.40;;;6.90;;
76053;SDS011;64752;48.870;9.082;2023-10-19T03:46:45;13.02;;;6.90;;
76053;SDS011;64752;48.870;9.082;2023-10-19T03:49:42;13.18;;;6.63;;
76053;SDS011;64752;48.870;9.082;2023-10-19T03:52:08;13.25;;;7.45;;
76053;SDS011;64752;48.870;9.082;2023-10-19T03:54:34;10.90;;;7.13;;
76053;SDS011;64752;48.870;9.082;2023-10-19T03:57:06;11.18;;;7.68;;
76053;SDS011;64752;48.870;9.082;2023-10-19T03:59:37;11.90;;;7.03;;
76053;SDS011;64752;48.870;9.082;2023-10-19T04:02:05;12.32;;;7.40;;
76053;SDS011;64752;48.870;9.082;2023-10-19T04:04:38;10.60;;;6.63;;
76053;SDS011;64752;48.870;9.082;2023-10-19T04:07:24;12.07;;;7.45;;
76053;SDS011;64752;48.870;9.082;2023-10-19T04:09:54;15.63;;;10.02;;
76053;SDS011;64752;48.870;9.082;2023-10-19T04:12:23;12.68;;;7.47;;
76053;SDS011;64752;48.870;9.082;2023-10-19T04:14:49;8.40;;;7.23;;
76053;SDS011;64752;48.870;9.082;2023-10-19T04:17:15;10.63;;;6.93;;
76053;SDS011;64752;48.870;9.082;2023-10-19T04:19:42;10.27;;;6.85;;
76053;SDS011;64752;48.870;9.082;2023-10-19T04:22:09;10.07;;;6.85;;
76053;SDS011;64752;48.870;9.082;2023-10-19T04:24:36;16.80;;;7.28;;
76053;SDS011;64752;48.870;9.082;2023-10-19T04:27:01;12.60;;;7.43;;
76053;SDS011;64752;48.870;9.082;2023-10-19T04:29:27;9.23;;;6.60;;
76053;SDS011;64752;48.870;9.082;2023-10-19T04:31:52;11.32;;;6.78;;
76053;SDS011;64752;48.870;9.082;2023-10-19T04:34:22;11.27;;;6.75;;
76053;SDS011;64752;48.870;9.082;2023-10-19T04:36:48;12.13;;;7.03;;
76053;SDS011;64752;48.870;9.082;2023-10-19T04:39:13;9.00;;;6.65;;
76053;SDS011;64752;48.870;9.082;2023-10-19T04:41:39;11.45;;;7.00;;
76053;SDS011;64752;48.870;9.082;2023-10-19T04:44:05;9.13;;;7.53;;
76053;SDS011;64752;48.870;9.082;2023-10-19T04:46:33;10.52;;;7.55;;
76053;SDS011;64752;48.870;9.082;2023-10-19T04:48:58;12.38;;;7.63;;
76053;SDS011;64752;48.870;9.082;2023-10-19T04:51:24;10.38;;;7.38;;
76053;SDS011;64752;48.870;9.082;2023-10-19T04:53:50;13.95;;;8.68;;
76053;SDS011;64752;48.870;9.082;2023-10-19T04:56:15;14.35;;;8.95;;
76053;SDS011;64752;48.870;9.082;2023-10-19T04:58:40;12.32;;;7.53;;
76053;SDS011;64752;48.870;9.082;2023-10-19T05:01:06;11.88;;;8.68;;
76053;SDS011;64752;48.870;9.082;2023-10-19T05:03:31;12.88;;;9.55;;
76053;SDS011;64752;48.870;9.082;2023-10-19T05:05:57;12.88;;;8.77;;
76053;SDS011;64752;48.870;9.082;2023-10-19T05:08:23;11.95;;;8.52;;
76053;SDS011;64752;48.870;9.082;2023-10-19T05:10:51;12.82;;;8.80;;
76053;SDS011;64752;48.870;9.082;2023-10-19T05:13:21;12.13;;;8.52;;
76053;SDS011;64752;48.870;9.082;2023-10-19T05:15:50;13.15;;;8.50;;
76053;SDS011;64752;48.870;9.082;2023-10-19T05:18:16;14.35;;;8.95;;
76053;SDS011;64752;48.870;9.082;2023-10-19T05:20:41;15.88;;;10.15;;
76053;SDS011;64752;48.870;9.082;2023-10-19T05:23:07;16.23;;;8.80;;
76053;SDS011;64752;48.870;9.082;2023-10-19T05:25:33;15.20;;;9.80;;
76053;SDS011;64752;48.870;9.082;2023-10-19T05:28:01;13.95;;;9.75;;
76053;SDS011;64752;48.870;9.082;2023-10-19T05:30:28;17.08;;;10.25;;
76053;SDS011;64752;48.870;9.082;2023-10-19T05:32:55;15.30;;;9.70;;
76053;SDS011;64752;48.870;9.082;2023-10-19T05:35:20;17.40;;;9.48;;
76053;SDS011;64752;48.870;9.082;2023-10-19T05:37:49;14.38;;;9.68;;
76053;SDS011;64752;48.870;9.082;2023-10-19T05:40:15;14.73;;;11.15;;
76053;SDS011;64752;48.870;9.082;2023-10-19T05:42:41;19.42;;;11.43;;
76053;SDS011;64752;48.870;9.082;2023-10-19T05:45:07;18.85;;;10.60;;
76053;SDS011;64752;48.870;9.082;2023-10-19T05:47:33;14.70;;;11.37;;
76053;SDS011;64752;48.870;9.082;2023-10-19T05:49:58;19.73;;;10.73;;
76053;SDS011;64752;48.870;9.082;2023-10-19T05:52:23;17.27;;;10.10;;
76053;SDS011;64752;48.870;9.082;2023-10-19T05:54:49;14.73;;;10.13;;
76053;SDS011;64752;48.870;9.082;2023-10-19T05:57:14;15.73;;;10.05;;
76053;SDS011;64752;48.870;9.082;2023-10-19T05:59:40;12.77;;;9.18;;
76053;SDS011;64752;48.870;9.082;2023-10-19T06:02:06;16.23;;;8.93;;
76053;SDS011;64752;48.870;9.082;2023-10-19T06:04:32;8.50;;;7.07;;
76053;SDS011;64752;48.870;9.082;2023-10-19T06:06:58;12.25;;;6.72;;
76053;SDS011;64752;48.870;9.082;2023-10-19T06:09:24;10.63;;;6.75;;
76053;SDS011;64752;48.870;9.082;2023-10-19T06:11:57;9.30;;;6.75;;
76053;SDS011;64752;48.870;9.082;2023-10-19T06:14:39;10.50;;;6.13;;
76053;SDS011;64752;48.870;9.082;2023-10-19T06:17:10;12.43;;;6.07;;
76053;SDS011;64752;48.870;9.082;2023-10-19T06:19:43;8.52;;;5.38;;
76053;SDS011;64752;48.870;9.082;2023-10-19T06:22:18;9.15;;;5.47;;
76053;SDS011;64752;48.870;9.082;2023-10-19T06:24:53;10.23;;;5.57;;
76053;SDS011;64752;48.870;9.082;2023-10-19T06:27:24;8.73;;;5.47;;
76053;SDS011;64752;48.870;9.082;2023-10-19T06:32:48;8.75;;;5.72;;
76053;SDS011;64752;48.870;9.082;2023-10-19T06:35:18;8.38;;;5.10;;
76053;SDS011;64752;48.870;9.082;2023-10-19T06:37:44;8.80;;;5.10;;
76053;SDS011;64752;48.870;9.082;2023-10-19T06:40:11;9.10;;;5.32;;
76053;SDS011;64752;48.870;9.082;2023-10-19T06:42:38;10.18;;;4.70;;
76053;SDS011;64752;48.870;9.082;2023-10-19T06:45:17;10.07;;;4.78;;
76053;SDS011;64752;48.870;9.082;2023-10-19T06:47:44;8.88;;;5.60;;
76053;SDS011;64752;48.870;9.082;2023-10-19T06:50:21;11.43;;;6.38;;
76053;SDS011;64752;48.870;9.082;2023-10-19T06:52:50;9.95;;;5.82;;
76053;SDS011;64752;48.870;9.082;2023-10-19T06:55:17;9.30;;;6.10;;
76053;SDS011;64752;48.870;9.082;2023-10-19T06:57:46;7.93;;;5.70;;
76053;SDS011;64752;48.870;9.082;2023-10-19T07:00:16;11.95;;;6.80;;
76053;SDS011;64752;48.870;9.082;2023-10-19T07:02:51;11.43;;;6.65;;
76053;SDS011;64752;48.870;9.082;2023-10-19T07:05:20;10.48;;;6.95;;
76053;SDS011;64752;48.870;9.082;2023-10-19T07:07:57;13.52;;;7.25;;
76053;SDS011;64752;48.870;9.082;2023-10-19T07:10:24;11.10;;;7.40;;
76053;SDS011;64752;48.870;9.082;2023-10-19T07:12:52;10.43;;;7.28;;
76053;SDS011;64752;48.870;9.082;2023-10-19T07:15:19;11.27;;;7.95;;
76053;SDS011;64752;48.870;9.082;2023-10-19T07:17:48;14.30;;;8.30;;
76053;SDS011;64752;48.870;9.082;2023-10-19T07:20:18;14.48;;;8.02;;
76053;SDS011;64752;48.870;9.082;2023-10-19T07:23:03;15.38;;;7.22;;
76053;SDS011;64752;48.870;9.082;2023-10-19T07:25:46;11.73;;;7.72;;
76053;SDS011;64752;48.870;9.082;2023-10-19T07:28:13;11.43;;;8.02;;
76053;SDS011;64752;48.870;9.082;2023-10-19T07:30:41;16.77;;;8.27;;
76053;SDS011;64752;48.870;9.082;2023-10-19T07:33:07;14.38;;;8.27;;
76053;SDS011;64752;48.870;9.082;2023-10-19T07:35:35;11.07;;;7.28;;
76053;SDS011;64752;48.870;9.082;2023-10-19T07:38:02;11.93;;;7.00;;
76053;SDS011;64752;48.870;9.082;2023-10-19T07:40:29;10.27;;;7.13;;
76053;SDS011;64752;48.870;9.082;2023-10-19T07:42:55;12.63;;;7.72;;
76053;SDS011;64752;48.870;9.082;2023-10-19T07:45:21;16.92;;;8.85;;
76053;SDS011;64752;48.870;9.082;2023-10-19T07:47:47;13.93;;;7.60;;
76053;SDS011;64752;48.870;9.082;2023-10-19T07:50:12;12.48;;;7.65;;
76053;SDS011;64752;48.870;9.082;2023-10-19T07:52:41;15.48;;;7.95;;
76053;SDS011;64752;48.870;9.082;2023-10-19T07:55:15;13.65;;;8.13;;
76053;SDS011;64752;48.870;9.082;2023-10-19T08:00:07;12.43;;;7.93;;
76053;SDS011;64752;48.870;9.082;2023-10-19T08:02:35;11.70;;;7.38;;
76053;SDS011;64752;48.870;9.082;2023-10-19T08:05:00;13.15;;;8.20;;
76053;SDS011;64752;48.870;9.082;2023-10-19T08:07:29;9.35;;;7.05;;
76053;SDS011;64752;48.870;9.082;2023-10-19T08:09:54;12.50;;;6.45;;
76053;SDS011;64752;48.870;9.082;2023-10-19T08:12:23;11.15;;;6.18;;
76053;SDS011;64752;48.870;9.082;2023-10-19T08:14:49;11.18;;;6.38;;
76053;SDS011;64752;48.870;9.082;2023-10-19T08:17:15;12.30;;;6.23;;
76053;SDS011;64752;48.870;9.082;2023-10-19T08:19:40;7.93;;;4.87;;
76053;SDS011;64752;48.870;9.082;2023-10-19T08:22:06;9.13;;;4.93;;
76053;SDS011;64752;48.870;9.082;2023-10-19T08:24:32;10.45;;;5.07;;
76053;SDS011;64752;48.870;9.082;2023-10-19T08:27:00;8.32;;;4.32;;
76053;SDS011;64752;48.870;9.082;2023-10-19T08:29:25;6.83;;;4.10;;
76053;SDS011;64752;48.870;9.082;2023-10-19T08:31:51;9.43;;;3.83;;
76053;SDS011;64752;48.870;9.082;2023-10-19T08:34:16;4.90;;;3.10;;
76053;SDS011;64752;48.870;9.082;2023-10-19T08:36:42;7.60;;;3.10;;
76053;SDS011;64752;48.870;9.082;2023-10-19T08:39:08;8.03;;;4.10;;
76053;SDS011;64752;48.870;9.082;2023-10-19T08:41:37;6.57;;;3.30;;
76053;SDS011;64752;48.870;9.082;2023-10-19T08:44:04;8.10;;;3.67;;
76053;SDS011;64752;48.870;9.082;2023-10-19T08:46:43;6.32;;;3.65;;
76053;SDS011;64752;48.870;9.082;2023-10-19T08:49:13;7.40;;;3.22;;
76053;SDS011;64752;48.870;9.082;2023-10-19T08:54:57;6.25;;;3.13;;
76053;SDS011;64752;48.870;9.082;2023-10-19T08:58:00;6.65;;;2.80;;
76053;SDS011;64752;48.870;9.082;2023-10-19T09:01:18;5.28;;;2.70;;
76053;SDS011;64752;48.870;9.082;2023-10-19T09:14:34;3.42;;;2.58;;
76053;SDS011;64752;48.870;9.082;2023-10-19T09:17:13;4.97;;;2.35;;
76053;SDS011;64752;48.870;9.082;2023-10-19T09:20:18;5.38;;;1.95;;
76053;SDS011;64752;48.870;9.082;2023-10-19T09:23:26;6.90;;;1.77;;
76053;SDS011;64752;48.870;9.082;2023-10-19T09:25:59;2.92;;;1.70;;
76053;SDS011;64752;48.870;9.082;2023-10-19T09:28:47;5.43;;;1.83;;
76053;SDS011;64752;48.870;9.082;2023-10-19T09:31:30;4.25;;;1.58;;
76053;SDS011;64752;48.870;9.082;2023-10-19T09:33:59;3.90;;;1.60;;
76053;SDS011;64752;48.870;9.082;2023-10-19T09:36:36;2.25;;;1.65;;
76053;SDS011;64752;48.870;9.082;2023-10-19T09:39:08;6.10;;;1.65;;
76053;SDS011;64752;48.870;9.082;2023-10-19T09:41:41;3.90;;;1.60;;
76053;SDS011;64752;48.870;9.082;2023-10-19T09:44:09;2.75;;;1.80;;
76053;SDS011;64752;48.870;9.082;2023-10-19T09:46:38;3.88;;;1.85;;
76053;SDS011;64752;48.870;9.082;2023-10-19T09:49:25;5.03;;;2.00;;
76053;SDS011;64752;48.870;9.082;2023-10-19T09:51:53;4.78;;;1.60;;
76053;SDS011;64752;48.870;9.082;2023-10-19T09:54:31;2.93;;;1.70;;
76053;SDS011;64752;48.870;9.082;2023-10-19T09:57:09;5.03;;;1.85;;
76053;SDS011;64752;48.870;9.082;2023-10-19T09:59:42;4.75;;;1.90;;
76053;SDS011;64752;48.870;9.082;2023-10-19T10:04:39;4.45;;;1.67;;
76053;SDS011;64752;48.870;9.082;2023-10-19T10:07:06;4.27;;;1.70;;
76053;SDS011;64752;48.870;9.082;2023-10-19T10:09:36;5.88;;;1.70;;
76053;SDS011;64752;48.870;9.082;2023-10-19T10:12:20;4.68;;;1.83;;
76053;SDS011;64752;48.870;9.082;2023-10-19T10:15:21;5.40;;;2.03;;
76053;SDS011;64752;48.870;9.082;2023-10-19T10:17:41;5.25;;;2.20;;
76053;SDS011;64752;48.870;9.082;2023-10-19T10:25:25;4.72;;;2.00;;
76053;SDS011;64752;48.870;9.082;2023-10-19T10:27:53;5.80;;;2.15;;
76053;SDS011;64752;48.870;9.082;2023-10-19T10:30:19;4.47;;;1.70;;
76053;SDS011;64752;48.870;9.082;2023-10-19T10:32:51;5.07;;;2.03;;
76053;SDS011;64752;48.870;9.082;2023-10-19T10:38:02;5.18;;;1.92;;
76053;SDS011;64752;48.870;9.082;2023-10-19T10:40:30;4.13;;;2.00;;
76053;SDS011;64752;48.870;9.082;2023-10-19T10:43:05;4.32;;;1.90;;
76053;SDS011;64752;48.870;9.082;2023-10-19T10:45:31;5.50;;;2.22;;
76053;SDS011;64752;48.870;9.082;2023-10-19T10:47:56;4.17;;;1.73;;
76053;SDS011;64752;48.870;9.082;2023-10-19T10:50:22;3.70;;;1.40;;
76053;SDS011;64752;48.870;9.082;2023-10-19T10:52:48;2.85;;;1.52;;
76053;SDS011;64752;48.870;9.082;2023-10-19T10:55:14;5.20;;;1.97;;
76053;SDS011;64752;48.870;9.082;2023-10-19T10:57:40;3.40;;;1.77;;
76053;SDS011;64752;48.870;9.082;2023-10-19T11:00:07;4.85;;;1.92;;
76053;SDS011;64752;48.870;9.082;2023-10-19T11:02:35;2.80;;;1.60;;
76053;SDS011;64752;48.870;9.082;2023-10-19T11:05:01;3.85;;;1.70;;
76053;SDS011;64752;48.870;9.082;2023-10-19T11:07:26;5.73;;;2.53;;
76053;SDS011;64752;48.870;9.082;2023-10-19T11:09:52;2.60;;;1.63;;
76053;SDS011;64752;48.870;9.082;2023-10-19T11:12:17;5.80;;;1.83;;
76053;SDS011;64752;48.870;9.082;2023-10-19T11:17:19;5.97;;;2.03;;
76053;SDS011;64752;48.870;9.082;2023-10-19T11:19:48;5.25;;;1.88;;
76053;SDS011;64752;48.870;9.082;2023-10-19T11:22:14;2.77;;;1.57;;
76053;SDS011;64752;48.870;9.082;2023-10-19T11:24:39;4.67;;;2.10;;
76053;SDS011;64752;48.870;9.082;2023-10-19T11:27:12;2.87;;;2.20;;
76053;SDS011;64752;48.870;9.082;2023-10-19T11:29:38;4.18;;;2.10;;
76053;SDS011;64752;48.870;9.082;2023-10-19T11:32:03;4.97;;;2.27;;
76053;SDS011;64752;48.870;9.082;2023-10-19T11:34:30;6.03;;;2.17;;
76053;SDS011;64752;48.870;9.082;2023-10-19T11:36:59;6.32;;;2.58;;
76053;SDS011;64752;48.870;9.082;2023-10-19T11:39:27;2.87;;;2.17;;
76053;SDS011;64752;48.870;9.082;2023-10-19T11:41:53;7.55;;;2.40;;
76053;SDS011;64752;48.870;9.082;2023-10-19T11:44:18;5.78;;;2.80;;
76053;SDS011;64752;48.870;9.082;2023-10-19T11:46:44;12.20;;;3.13;;
76053;SDS011;64752;48.870;9.082;2023-10-19T11:49:11;4.88;;;2.55;;
76053;SDS011;64752;48.870;9.082;2023-10-19T11:51:36;8.53;;;3.47;;
76053;SDS011;64752;48.870;9.082;2023-10-19T11:54:04;6.67;;;3.00;;
76053;SDS011;64752;48.870;9.082;2023-10-19T11:56:31;8.52;;;3.10;;
76053;SDS011;64752;48.870;9.082;2023-10-19T11:58:56;8.80;;;3.50;;
76053;SDS011;64752;48.870;9.082;2023-10-19T12:01:22;5.70;;;2.77;;
76053;SDS011;64752;48.870;9.082;2023-10-19T12:03:47;6.77;;;2.47;;
76053;SDS011;64752;48.870;9.082;2023-10-19T12:06:13;6.78;;;3.30;;
76053;SDS011;64752;48.870;9.082;2023-10-19T12:08:44;7.10;;;3.13;;
76053;SDS011;64752;48.870;9.082;2023-10-19T12:11:09;6.70;;;3.30;;
76053;SDS011;64752;48.870;9.082;2023-10-19T12:13:46;9.13;;;3.05;;
76053;SDS011;64752;48.870;9.082;2023-10-19T12:16:12;7.75;;;3.35;;
76053;SDS011;64752;48.870;9.082;2023-10-19T12:18:47;6.40;;;2.50;;
76053;SDS011;64752;48.870;9.082;2023-10-19T12:21:15;5.20;;;2.92;;
76053;SDS011;64752;48.870;9.082;2023-10-19T12:23:42;6.65;;;2.72;;
76053;SDS011;64752;48.870;9.082;2023-10-19T12:26:09;6.30;;;2.80;;
76053;SDS011;64752;48.870;9.082;2023-10-19T12:28:38;7.50;;;3.28;;
76053;SDS011;64752;48.870;9.082;2023-10-19T12:31:06;13.50;;;3.50;;
76053;SDS011;64752;48.870;9.082;2023-10-19T12:33:35;7.50;;;3.22;;
76053;SDS011;64752;48.870;9.082;2023-10-19T12:36:07;13.43;;;3.58;;
76053;SDS011;64752;48.870;9.082;2023-10-19T12:38:45;9.40;;;4.13;;
76053;SDS011;64752;48.870;9.082;2023-10-19T12:41:10;8.68;;;4.18;;
76053;SDS011;64752;48.870;9.082;2023-10-19T12:43:36;16.70;;;3.53;;
76053;SDS011;64752;48.870;9.082;2023-10-19T12:46:01;8.37;;;3.30;;
76053;SDS011;64752;48.870;9.082;2023-10-19T12:48:27;6.40;;;3.03;;
76053;SDS011;64752;48.870;9.082;2023-10-19T12:50:58;5.18;;;2.92;;
76053;SDS011;64752;48.870;9.082;2023-10-19T12:53:24;6.27;;;3.33;;
76053;SDS011;64752;48.870;9.082;2023-10-19T12:55:50;8.10;;;3.50;;
76053;SDS011;64752;48.870;9.082;2023-10-19T12:58:17;6.60;;;3.83;;
76053;SDS011;64752;48.870;9.082;2023-10-19T13:00:44;9.45;;;3.60;;
76053;SDS011;64752;48.870;9.082;2023-10-19T13:03:12;5.53;;;3.55;;
76053;SDS011;64752;48.870;9.082;2023-10-19T13:05:41;8.77;;;5.30;;
76053;SDS011;64752;48.870;9.082;2023-10-19T13:08:10;9.23;;;4.82;;
76053;SDS011;64752;48.870;9.082;2023-10-19T13:10:39;10.32;;;6.00;;
76053;SDS011;64752;48.870;9.082;2023-10-19T13:13:09;12.40;;;5.50;;
76053;SDS011;64752;48.870;9.082;2023-10-19T13:15:37;11.25;;;7.97;;
76053;SDS011;64752;48.870;9.082;2023-10-19T13:18:04;18.30;;;9.82;;
76053;SDS011;64752;48.870;9.082;2023-10-19T13:20:32;15.25;;;9.13;;
76053;SDS011;64752;48.870;9.082;2023-10-19T13:23:07;14.10;;;9.25;;
76053;SDS011;64752;48.870;9.082;2023-10-19T13:25:46;14.02;;;9.88;;
76053;SDS011;64752;48.870;9.082;2023-10-19T13:28:18;15.52;;;10.65;;
76053;SDS011;64752;48.870;9.082;2023-10-19T13:33:21;14.00;;;9.77;;
76053;SDS011;64752;48.870;9.082;2023-10-19T13:35:47;22.38;;;10.05;;
76053;SDS011;64752;48.870;9.082;2023-10-19T13:38:13;13.93;;;9.93;;
76053;SDS011;64752;48.870;9.082;2023-10-19T13:40:41;14.77;;;8.70;;
76053;SDS011;64752;48.870;9.082;2023-10-19T13:43:07;16.02;;;9.15;;
76053;SDS011;64752;48.870;9.082;2023-10-19T13:45:38;12.60;;;9.38;;
76053;SDS011;64752;48.870;9.082;2023-10-19T13:48:04;12.32;;;9.00;;
76053;SDS011;64752;48.870;9.082;2023-10-19T13:50:31;14.80;;;8.77;;
76053;SDS011;64752;48.870;9.082;2023-10-19T13:52:57;15.02;;;8.27;;
76053;SDS011;64752;48.870;9.082;2023-10-19T13:55:24;15.27;;;9.50;;
76053;SDS011;64752;48.870;9.082;2023-10-19T13:57:50;21.13;;;9.48;;
76053;SDS011;64752;48.870;9.082;2023-10-19T14:00:16;17.33;;;10.00;;
76053;SDS011;64752;48.870;9.082;2023-10-19T14:02:52;18.90;;;10.10;;
76053;SDS011;64752;48.870;9.082;2023-10-19T14:05:18;19.13;;;10.40;;
76053;SDS011;64752;48.870;9.082;2023-10-19T14:07:45;16.08;;;8.70;;
76053;SDS011;64752;48.870;9.082;2023-10-19T14:10:12;18.88;;;9.23;;
76053;SDS011;64752;48.870;9.082;2023-10-19T14:12:39;11.77;;;8.25;;
76053;SDS011;64752;48.870;9.082;2023-10-19T14:15:10;11.07;;;7.82;;
76053;SDS011;64752;48.870;9.082;2023-10-19T14:17:43;13.93;;;9.05;;
76053;SDS011;64752;48.870;9.082;2023-10-19T14:20:11;12.10;;;8.32;;
76053;SDS011;64752;48.870;9.082;2023-10-19T14:22:43;15.05;;;8.13;;
76053;SDS011;64752;48.870;9.082;2023-10-19T14:25:18;9.70;;;7.88;;
76053;SDS011;64752;48.870;9.082;2023-10-19T14:27:46;9.90;;;7.53;;
76053;SDS011;64752;48.870;9.082;2023-10-19T14:30:16;11.95;;;7.53;;
76053;SDS011;64752;48.870;9.082;2023-10-19T14:32:46;12.60;;;8.13;;
76053;SDS011;64752;48.870;9.082;2023-10-19T14:35:13;14.10;;;9.20;;
76053;SDS011;64752;48.870;9.082;2023-10-19T14:37:43;14.63;;;9.63;;
76053;SDS011;64752;48.870;9.082;2023-10-19T14:40:10;15.70;;;9.45;;
76053;SDS011;64752;48.870;9.082;2023-10-19T14:42:41;15.45;;;10.68;;
76053;SDS011;64752;48.870;9.082;2023-10-19T14:50:03;14.38;;;10.15;;
76053;SDS011;64752;48.870;9.082;2023-10-19T14:52:29;17.98;;;10.65;;
76053;SDS011;64752;48.870;9.082;2023-10-19T14:54:55;17.20;;;10.77;;
76053;SDS011;64752;48.870;9.082;2023-10-19T14:57:21;16.83;;;11.50;;
76053;SDS011;64752;48.870;9.082;2023-10-19T14:59:47;16.55;;;11.90;;
76053;SDS011;64752;48.870;9.082;2023-10-19T15:02:13;13.13;;;11.40;;
76053;SDS011;64752;48.870;9.082;2023-10-19T15:04:39;15.63;;;11.77;;
76053;SDS011;64752;48.870;9.082;2023-10-19T15:07:04;16.93;;;12.43;;
76053;SDS011;64752;48.870;9.082;2023-10-19T15:09:30;18.38;;;12.57;;
76053;SDS011;64752;48.870;9.082;2023-10-19T15:11:56;19.00;;;11.98;;
76053;SDS011;64752;48.870;9.082;2023-10-19T15:14:22;17.67;;;11.70;;
76053;SDS011;64752;48.870;9.082;2023-10-19T15:16:47;17.60;;;11.85;;
76053;SDS011;64752;48.870;9.082;2023-10-19T15:19:12;16.42;;;11.70;;
76053;SDS011;64752;48.870;9.082;2023-10-19T15:21:40;15.02;;;10.23;;
76053;SDS011;64752;48.870;9.082;2023-10-19T15:24:07;14.43;;;9.98;;
76053;SDS011;64752;48.870;9.082;2023-10-19T15:26:32;15.13;;;10.15;;
76053;SDS011;64752;48.870;9.082;2023-10-19T15:28:58;13.67;;;9.87;;
76053;SDS011;64752;48.870;9.082;2023-10-19T15:31:23;18.43;;;10.67;;